Time;durP1;ratioP1;P1;durP2;ratioP2;P2;SDS_P1;SDS_P2;PMS_P1;PMS_P2;Temp;Humidity;BMP_temperature;BMP_pressure;BME280_temperature;BME280_humidity;BME280_pressure;Samples;Min_cycle;Max_cycle;Signal;HPM_P1;HPM_P2
2022/07/08 00:01:54;;;;;;;5.63;1.30;;;16.30;65.40;;;;;;5053960;28;20028;-38
2022/07/08 00:04:20;;;;;;;6.50;2.28;;;16.10;65.50;;;;;;5053663;28;20496;-38
2022/07/08 00:06:46;;;;;;;7.55;1.23;;;16.10;65.80;;;;;;5053749;28;20104;-38
2022/07/08 00:09:12;;;;;;;5.45;1.40;;;16.00;66.00;;;;;;5054106;28;20071;-38
2022/07/08 00:11:39;;;;;;;1.80;0.85;;;16.00;66.30;;;;;;5054401;28;20063;-39
2022/07/08 00:14:05;;;;;;;10.30;2.97;;;16.00;66.20;;;;;;5053815;28;20136;-39
2022/07/08 00:16:30;;;;;;;9.32;1.10;;;16.10;66.10;;;;;;5053984;28;20097;-38
2022/07/08 00:18:56;;;;;;;4.80;1.15;;;16.00;66.30;;;;;;5053313;28;20047;-39
2022/07/08 00:21:22;;;;;;;9.10;3.25;;;16.00;66.50;;;;;;5055214;28;20084;-39
2022/07/08 00:23:47;;;;;;;8.80;1.60;;;16.10;66.30;;;;;;5053390;28;20032;-38
2022/07/08 00:26:13;;;;;;;9.63;1.83;;;15.90;66.80;;;;;;5054725;28;20423;-37
2022/07/08 00:28:39;;;;;;;9.07;1.63;;;16.00;66.80;;;;;;5054287;28;20096;-39
2022/07/08 00:31:05;;;;;;;5.25;1.70;;;16.00;66.60;;;;;;5052768;28;20036;-38
2022/07/08 00:33:30;;;;;;;4.55;1.77;;;15.90;66.90;;;;;;5053102;28;20029;-37
2022/07/08 00:35:56;;;;;;;5.68;1.63;;;16.00;66.70;;;;;;5054152;28;20167;-38
2022/07/08 00:38:22;;;;;;;12.23;2.05;;;16.10;66.50;;;;;;5053860;28;20048;-38
2022/07/08 00:40:47;;;;;;;10.07;1.60;;;16.10;66.90;;;;;;5052839;28;20017;-38
2022/07/08 00:43:39;;;;;;;5.25;1.30;;;16.10;66.90;;;;;;5053074;28;20029;-38
2022/07/08 00:46:05;;;;;;;5.80;1.15;;;16.10;67.10;;;;;;5052965;28;20119;-38
2022/07/08 00:48:31;;;;;;;9.50;1.10;;;16.00;67.10;;;;;;5051687;28;20033;-39
2022/07/08 00:51:02;;;;;;;6.07;1.35;;;16.00;67.20;;;;;;5053208;28;20032;-38
2022/07/08 00:53:29;;;;;;;5.13;1.88;;;16.00;67.50;;;;;;5052658;28;20083;-39
2022/07/08 00:55:56;;;;;;;8.27;1.33;;;15.90;67.50;;;;;;5052826;28;20021;-37
2022/07/08 00:58:23;;;;;;;3.42;1.05;;;16.00;67.40;;;;;;5052513;28;20031;-37
2022/07/08 01:00:49;;;;;;;4.60;1.60;;;16.00;67.10;;;;;;5055080;28;20025;-42
2022/07/08 01:03:16;;;;;;;8.82;2.85;;;15.80;67.50;;;;;;5057008;28;20500;-42
2022/07/08 01:05:42;;;;;;;9.52;1.52;;;15.80;68.10;;;;;;5055990;28;20539;-39
2022/07/08 01:08:08;;;;;;;6.65;2.33;;;15.80;68.40;;;;;;5055756;28;20525;-39
2022/07/08 01:10:33;;;;;;;9.75;1.70;;;15.90;68.40;;;;;;5056497;28;20117;-39
2022/07/08 01:13:00;;;;;;;11.18;2.33;;;15.90;68.10;;;;;;5056322;28;20048;-39
2022/07/08 01:15:26;;;;;;;7.22;1.50;;;15.90;68.20;;;;;;5056651;28;20017;-37
2022/07/08 01:17:51;;;;;;;8.95;2.53;;;15.90;68.40;;;;;;5056248;28;20492;-38
2022/07/08 01:20:17;;;;;;;7.85;1.48;;;15.80;68.70;;;;;;5056105;28;20032;-38
2022/07/08 01:22:43;;;;;;;5.63;1.42;;;15.70;69.20;;;;;;5055929;28;20522;-38
2022/07/08 01:25:10;;;;;;;4.82;1.10;;;15.50;70.00;;;;;;5056544;28;20099;-38
2022/07/08 01:27:36;;;;;;;5.22;1.27;;;15.60;70.10;;;;;;5056760;28;20025;-38
2022/07/08 01:30:04;;;;;;;7.75;2.33;;;15.60;70.20;;;;;;5056816;28;20032;-37
2022/07/08 01:32:35;;;;;;;6.25;1.63;;;15.50;70.90;;;;;;5038709;28;20013;-38
2022/07/08 01:35:01;;;;;;;6.05;2.53;;;15.40;71.20;;;;;;5055157;28;20033;-37
2022/07/08 01:37:28;;;;;;;3.72;1.50;;;15.50;71.40;;;;;;5056302;28;20100;-38
2022/07/08 01:39:54;;;;;;;8.55;1.40;;;15.60;70.60;;;;;;5056271;28;20021;-37
2022/07/08 01:42:21;;;;;;;8.40;2.30;;;15.50;71.00;;;;;;5056713;28;20083;-37
2022/07/08 01:44:48;;;;;;;5.10;1.38;;;15.70;70.90;;;;;;5055023;28;20024;-37
2022/07/08 01:47:14;;;;;;;8.13;1.67;;;15.50;71.00;;;;;;5054958;28;20032;-37
2022/07/08 01:49:40;;;;;;;9.68;2.63;;;15.60;71.10;;;;;;5057248;28;20033;-37
2022/07/08 01:52:08;;;;;;;6.43;1.95;;;15.60;70.90;;;;;;5056649;28;20028;-37
2022/07/08 01:54:34;;;;;;;7.15;1.80;;;15.60;71.30;;;;;;5057012;28;20086;-38
2022/07/08 01:57:16;;;;;;;4.50;2.15;;;15.60;71.40;;;;;;5038119;28;20021;-37
2022/07/08 01:59:43;;;;;;;6.10;1.50;;;15.50;71.40;;;;;;5055623;28;20025;-38
2022/07/08 02:02:10;;;;;;;10.55;1.65;;;15.60;71.40;;;;;;5055325;28;20025;-37
2022/07/08 02:04:35;;;;;;;5.00;1.90;;;15.40;71.70;;;;;;5037377;28;20435;-37
2022/07/08 02:07:01;;;;;;;8.43;2.20;;;15.30;72.20;;;;;;5055165;28;20112;-39
2022/07/08 02:09:27;;;;;;;5.95;1.92;;;15.30;72.60;;;;;;5056362;28;20108;-38
2022/07/08 02:14:37;;;;;;;11.82;1.98;;;15.30;72.80;;;;;;5054836;28;20136;-37
2022/07/08 02:17:03;;;;;;;4.88;1.63;;;15.30;73.00;;;;;;5054775;28;20017;-37
2022/07/08 02:19:31;;;;;;;6.50;1.80;;;15.30;73.00;;;;;;5021037;28;20496;-37
2022/07/08 02:21:56;;;;;;;5.72;1.35;;;15.30;72.90;;;;;;5055314;28;20021;-39
2022/07/08 02:24:23;;;;;;;5.45;1.50;;;15.30;73.10;;;;;;5055899;28;20457;-38
2022/07/08 02:26:48;;;;;;;8.52;1.83;;;15.30;73.00;;;;;;5053613;28;20035;-37
2022/07/08 02:29:15;;;;;;;5.68;2.15;;;15.20;73.40;;;;;;5055144;28;20385;-37
2022/07/08 02:31:41;;;;;;;13.43;2.10;;;15.10;73.70;;;;;;5053730;28;20074;-37
2022/07/08 02:34:07;;;;;;;10.60;1.75;;;15.20;73.70;;;;;;5054109;28;20393;-37
2022/07/08 02:36:34;;;;;;;4.68;1.55;;;15.10;73.70;;;;;;5053971;28;20046;-37
2022/07/08 02:39:01;;;;;;;5.90;1.25;;;15.10;73.70;;;;;;5053929;28;20028;-38
2022/07/08 02:41:28;;;;;;;8.70;1.80;;;15.10;73.80;;;;;;5054986;28;20391;-37
2022/07/08 02:43:53;;;;;;;9.85;1.80;;;15.00;73.80;;;;;;5053292;28;20401;-40
2022/07/08 02:46:19;;;;;;;9.00;2.20;;;15.00;73.90;;;;;;5054446;28;20025;-42
2022/07/08 02:48:45;;;;;;;5.68;1.52;;;15.10;73.90;;;;;;5054657;28;20032;-39
2022/07/08 02:51:10;;;;;;;5.78;1.65;;;15.00;74.20;;;;;;5054479;28;20032;-39
2022/07/08 02:53:36;;;;;;;7.95;1.50;;;15.10;74.10;;;;;;5054111;28;20094;-40
2022/07/08 02:56:01;;;;;;;2.97;1.45;;;15.10;74.10;;;;;;5052831;28;20017;-39
2022/07/08 02:58:28;;;;;;;8.73;1.65;;;15.00;74.10;;;;;;5054127;28;20029;-38
2022/07/08 03:00:53;;;;;;;4.80;1.63;;;15.10;73.90;;;;;;5054163;28;20041;-40
2022/07/08 03:03:19;;;;;;;10.40;1.90;;;15.00;74.40;;;;;;5053841;28;20056;-37
2022/07/08 03:05:44;;;;;;;7.75;2.35;;;15.00;74.20;;;;;;5053861;28;20033;-38
2022/07/08 03:08:10;;;;;;;12.05;2.40;;;15.00;74.70;;;;;;5053768;28;20031;-38
2022/07/08 20:12:59;;;;;;;4.57;2.40;;;21.10;64.00;;;;;;5091778;27;20427;-39
2022/07/08 20:15:25;;;;;;;5.28;2.45;;;21.10;64.30;;;;;;5091203;28;20027;-40
2022/07/08 20:17:51;;;;;;;6.38;2.10;;;21.10;64.10;;;;;;5091357;28;20025;-40
2022/07/08 20:20:16;;;;;;;4.28;2.03;;;21.10;64.20;;;;;;5090085;28;20027;-38
2022/07/08 20:22:43;;;;;;;3.58;2.08;;;21.10;64.30;;;;;;5090069;28;20025;-39
2022/07/08 20:25:09;;;;;;;3.58;2.30;;;21.10;64.20;;;;;;5091224;28;20051;-39
2022/07/08 20:27:36;;;;;;;6.18;2.28;;;21.10;64.20;;;;;;5090101;28;20533;-39
2022/07/08 20:30:03;;;;;;;4.38;2.15;;;21.10;64.30;;;;;;5089584;28;20025;-39
2022/07/08 20:32:29;;;;;;;3.60;1.90;;;21.00;64.50;;;;;;5090607;28;20024;-43
2022/07/08 20:34:56;;;;;;;6.75;2.60;;;20.90;64.80;;;;;;5090636;28;20013;-39
2022/07/08 20:37:23;;;;;;;7.43;2.13;;;20.90;65.10;;;;;;5089789;28;20371;-37
2022/07/08 20:39:49;;;;;;;3.50;2.30;;;21.00;64.90;;;;;;5090089;28;20091;-39
2022/07/08 20:44:59;;;;;;;8.70;4.55;;;20.80;65.90;;;;;;5090561;28;20043;-38
2022/07/08 20:47:25;;;;;;;11.80;5.28;;;20.70;66.50;;;;;;5090360;28;20020;-39
2022/07/08 20:49:50;;;;;;;7.15;3.38;;;20.50;67.00;;;;;;5089995;28;20024;-38
2022/07/08 20:52:16;;;;;;;7.03;3.78;;;20.50;67.20;;;;;;5090179;28;20024;-39
2022/07/08 20:54:42;;;;;;;2.97;2.22;;;20.40;67.20;;;;;;5088939;28;20113;-39
2022/07/08 20:57:08;;;;;;;6.15;4.15;;;20.30;68.00;;;;;;5089893;28;20058;-41
2022/07/08 20:59:34;;;;;;;5.03;2.25;;;20.30;68.40;;;;;;5090347;28;20082;-39
2022/07/08 21:02:02;;;;;;;5.25;2.38;;;20.30;68.50;;;;;;5089723;28;20054;-38
2022/07/08 21:04:28;;;;;;;4.20;2.63;;;20.10;68.90;;;;;;5088714;28;20480;-38
2022/07/08 21:06:53;;;;;;;7.90;2.42;;;20.10;69.30;;;;;;5089919;28;20051;-38
2022/07/08 21:09:19;;;;;;;9.68;3.00;;;20.10;69.40;;;;;;5089779;28;20032;-38
2022/07/08 21:11:45;;;;;;;10.07;3.33;;;20.10;69.60;;;;;;5088587;28;20353;-38
2022/07/08 21:14:11;;;;;;;4.53;2.85;;;20.00;69.80;;;;;;5089750;28;20487;-38
2022/07/08 21:16:37;;;;;;;8.60;3.13;;;19.90;69.90;;;;;;5090336;28;20020;-37
2022/07/08 21:19:03;;;;;;;10.30;3.67;;;19.90;70.00;;;;;;5089757;28;20020;-38
2022/07/08 21:21:29;;;;;;;10.80;3.80;;;19.80;70.20;;;;;;5089721;28;20032;-38
2022/07/08 21:23:55;;;;;;;9.20;2.65;;;19.80;70.60;;;;;;5078142;28;20066;-38
2022/07/08 21:26:20;;;;;;;6.15;2.47;;;19.80;70.30;;;;;;5074927;28;20481;-39
2022/07/08 21:28:46;;;;;;;4.13;2.50;;;19.80;70.60;;;;;;5076259;28;20032;-38
2022/07/08 21:31:12;;;;;;;8.15;3.63;;;19.80;70.70;;;;;;5076205;28;20032;-38
2022/07/08 21:33:37;;;;;;;5.75;3.40;;;19.80;70.50;;;;;;5075739;28;20066;-38
2022/07/08 21:36:03;;;;;;;6.50;3.00;;;19.80;70.70;;;;;;5075735;28;20020;-39
2022/07/08 21:38:29;;;;;;;5.20;3.17;;;19.80;70.60;;;;;;5075885;28;20021;-38
2022/07/08 21:40:55;;;;;;;3.97;2.92;;;19.70;70.90;;;;;;5075383;28;20024;-39
2022/07/08 21:43:20;;;;;;;3.42;2.33;;;19.70;70.90;;;;;;5075580;28;20024;-39
2022/07/08 21:45:46;;;;;;;4.25;2.50;;;19.70;71.20;;;;;;5073891;28;20027;-50
2022/07/08 21:48:12;;;;;;;6.13;2.55;;;19.70;71.30;;;;;;5075253;28;20025;-47
2022/07/08 21:50:38;;;;;;;6.13;2.90;;;19.70;71.30;;;;;;5075100;28;20473;-47
2022/07/08 21:53:04;;;;;;;7.38;2.95;;;19.70;71.60;;;;;;5075443;28;20391;-47
2022/07/08 21:55:30;;;;;;;7.05;2.95;;;19.60;71.90;;;;;;5075272;28;20027;-48
2022/07/08 21:57:55;;;;;;;7.53;2.97;;;19.50;72.30;;;;;;5075198;28;20119;-49
2022/07/08 22:00:21;;;;;;;4.95;3.83;;;19.50;72.60;;;;;;5075519;28;20464;-48
2022/07/08 22:02:48;;;;;;;5.63;3.03;;;19.40;72.90;;;;;;5075047;28;20079;-48
2022/07/08 22:05:14;;;;;;;7.47;3.30;;;19.30;73.20;;;;;;5073721;28;20020;-48
2022/07/08 22:07:39;;;;;;;9.23;4.53;;;19.30;73.60;;;;;;5075131;28;20024;-51
2022/07/08 22:10:06;;;;;;;7.65;4.68;;;19.20;73.80;;;;;;5075327;28;20032;-48
2022/07/08 22:12:33;;;;;;;8.77;5.25;;;19.20;73.90;;;;;;5056940;28;20044;-47
2022/07/08 22:15:01;;;;;;;8.45;3.88;;;19.10;74.50;;;;;;5075175;28;20035;-47
2022/07/08 22:17:27;;;;;;;8.85;3.55;;;19.00;74.80;;;;;;5074955;28;20074;-48
2022/07/08 22:19:53;;;;;;;8.20;3.75;;;19.00;75.00;;;;;;5075359;28;20051;-48
2022/07/08 22:22:18;;;;;;;6.78;3.88;;;19.00;75.10;;;;;;5075125;28;20472;-48
2022/07/08 22:24:44;;;;;;;8.40;4.10;;;18.90;75.00;;;;;;5075061;28;20039;-51
2022/07/08 22:27:10;;;;;;;9.35;4.90;;;18.90;75.40;;;;;;5075113;28;20029;-48
2022/07/08 22:29:35;;;;;;;6.53;3.55;;;18.80;75.60;;;;;;5074558;28;20059;-47
2022/07/08 22:32:01;;;;;;;4.75;3.20;;;18.80;75.90;;;;;;5073168;28;20031;-49
2022/07/08 22:34:27;;;;;;;3.75;2.92;;;18.70;76.10;;;;;;5073890;28;20048;-48
2022/07/08 22:36:52;;;;;;;5.32;3.22;;;18.70;76.50;;;;;;5075152;28;20025;-47
2022/07/08 22:39:18;;;;;;;8.18;2.72;;;18.50;76.70;;;;;;5075217;28;20074;-48
2022/07/08 22:41:44;;;;;;;5.80;2.80;;;18.50;77.20;;;;;;5074913;28;20090;-49
2022/07/08 22:44:09;;;;;;;6.68;4.45;;;18.40;77.60;;;;;;5075037;28;20506;-49
2022/07/08 22:46:35;;;;;;;7.32;3.78;;;18.20;78.40;;;;;;5074569;28;20031;-48
2022/07/08 22:49:01;;;;;;;11.68;5.13;;;18.20;78.30;;;;;;5073164;28;20384;-48
2022/07/08 22:51:27;;;;;;;4.63;3.22;;;18.10;78.90;;;;;;5074314;28;20472;-48
2022/07/08 22:53:52;;;;;;;4.78;3.40;;;18.00;79.30;;;;;;5072895;28;20112;-52
2022/07/08 22:56:18;;;;;;;4.90;3.20;;;18.20;78.80;;;;;;5074292;28;20028;-49
2022/07/08 22:58:44;;;;;;;5.88;3.45;;;18.20;78.80;;;;;;5074293;28;20020;-49
2022/07/08 23:01:12;;;;;;;4.22;3.30;;;18.20;79.10;;;;;;5072713;28;20078;-47
2022/07/08 23:03:40;;;;;;;10.70;3.83;;;18.20;78.90;;;;;;5073943;28;20036;-48
2022/07/08 23:06:06;;;;;;;4.18;3.20;;;18.10;79.20;;;;;;5074945;28;20111;-47
2022/07/08 23:08:32;;;;;;;7.65;3.42;;;18.20;79.10;;;;;;5074058;28;20108;-48
2022/07/08 23:10:58;;;;;;;11.07;3.75;;;18.20;79.50;;;;;;5073695;28;20488;-47
2022/07/08 23:13:23;;;;;;;4.40;3.30;;;18.20;79.50;;;;;;5072538;28;20480;-47
2022/07/08 23:15:49;;;;;;;17.17;8.00;;;18.20;79.50;;;;;;5074067;28;20537;-47
2022/07/08 23:18:15;;;;;;;9.77;5.47;;;18.20;79.70;;;;;;5073850;28;20123;-48
2022/07/08 23:20:40;;;;;;;4.00;3.58;;;18.20;79.90;;;;;;5073666;28;20448;-52
2022/07/08 23:23:06;;;;;;;11.32;5.50;;;18.10;79.90;;;;;;5073599;28;20514;-48
2022/07/08 23:25:31;;;;;;;11.05;3.50;;;18.10;79.90;;;;;;5073534;28;20029;-47
2022/07/08 23:27:57;;;;;;;5.30;3.00;;;18.00;80.20;;;;;;5072274;28;20048;-49
2022/07/08 23:30:23;;;;;;;4.20;3.30;;;18.00;80.30;;;;;;5073508;28;20404;-48
2022/07/08 23:32:50;;;;;;;8.30;3.40;;;18.00;80.40;;;;;;5073237;28;20024;-49
2022/07/08 23:35:16;;;;;;;6.40;3.15;;;18.00;80.50;;;;;;5073330;28;20028;-49
2022/07/08 23:37:42;;;;;;;9.23;4.00;;;18.00;80.50;;;;;;5073675;28;20028;-47
2022/07/08 23:40:08;;;;;;;7.53;3.92;;;18.00;80.40;;;;;;5072282;28;20403;-48
2022/07/08 23:42:34;;;;;;;7.28;3.42;;;18.00;80.40;;;;;;5073384;28;20488;-47
2022/07/08 23:45:00;;;;;;;6.07;3.72;;;18.00;80.40;;;;;;5073818;28;20028;-48
2022/07/08 23:47:25;;;;;;;6.78;4.18;;;18.00;80.50;;;;;;5073025;28;20036;-47
2022/07/08 23:49:51;;;;;;;7.38;3.63;;;17.90;80.60;;;;;;5073511;28;20025;-47
2022/07/08 23:52:17;;;;;;;4.28;3.33;;;17.80;80.80;;;;;;5071937;28;20511;-47
2022/07/08 23:54:46;;;;;;;8.40;4.05;;;17.80;81.00;;;;;;5073442;28;20480;-48
2022/07/08 23:57:12;;;;;;;4.88;3.10;;;17.70;81.20;;;;;;5073168;28;20021;-49
2022/07/08 23:59:38;;;;;;;6.03;3.28;;;17.70;81.50;;;;;;5073805;28;20035;-46
